Time;durP1;ratioP1;P1;durP2;ratioP2;P2;SDS_P1;SDS_P2;PMS_P1;PMS_P2;Temp;Humidity;BMP_temperature;BMP_pressure;BME280_temperature;BME280_humidity;BME280_pressure;Samples;Min_cycle;Max_cycle;Signal;HPM_P1;HPM_P2
2023/03/07 00:01:28;;;;;;;17.58;2.50;;;3.90;99.90;;;;;;4977026;28;20060;-87
2023/03/07 00:04:14;;;;;;;16.45;2.53;;;3.90;99.90;;;;;;4976948;28;20061;-88
2023/03/07 00:07:01;;;;;;;13.55;2.38;;;3.80;99.90;;;;;;4978078;28;20054;-88
2023/03/07 00:09:47;;;;;;;18.38;2.47;;;3.80;99.90;;;;;;4978273;28;20106;-87
2023/03/07 00:12:33;;;;;;;16.48;2.38;;;3.80;99.90;;;;;;4975863;28;20053;-88
2023/03/07 00:15:19;;;;;;;11.90;2.15;;;3.80;99.90;;;;;;4991249;28;20093;-87
2023/03/07 00:18:06;;;;;;;31.33;3.00;;;3.80;99.90;;;;;;4977653;28;20081;-87
2023/03/07 00:21:00;;;;;;;13.60;1.90;;;3.80;99.90;;;;;;4974117;28;20522;-87
2023/03/07 00:23:47;;;;;;;9.30;1.50;;;3.80;99.90;;;;;;4992320;28;20054;-87
2023/03/07 00:26:38;;;;;;;21.10;3.03;;;3.80;99.90;;;;;;4979881;28;20050;-87
2023/03/07 00:29:24;;;;;;;15.20;2.45;;;3.80;99.90;;;;;;4997992;28;20085;-87
2023/03/07 00:32:10;;;;;;;12.88;2.28;;;3.80;99.90;;;;;;4974185;28;20053;-86
2023/03/07 00:34:58;;;;;;;20.45;2.53;;;3.80;99.90;;;;;;4976716;28;20557;-87
2023/03/07 00:37:44;;;;;;;13.98;2.55;;;3.90;99.90;;;;;;4977421;28;20054;-87
2023/03/07 00:40:30;;;;;;;15.02;2.13;;;3.90;99.90;;;;;;4973444;28;20108;-86
2023/03/07 00:43:16;;;;;;;12.10;1.67;;;3.90;99.90;;;;;;4993236;28;20485;-87
2023/03/07 00:46:03;;;;;;;7.60;1.65;;;3.90;99.90;;;;;;4983152;28;20081;-87
2023/03/07 00:48:49;;;;;;;13.63;1.90;;;4.00;99.90;;;;;;4977283;28;20222;-88
2023/03/07 00:51:36;;;;;;;11.00;1.92;;;3.90;99.90;;;;;;4990930;28;20050;-87
2023/03/07 00:54:22;;;;;;;16.67;2.72;;;3.90;99.90;;;;;;4976962;28;20050;-87
2023/03/07 00:57:08;;;;;;;11.43;2.05;;;3.90;99.90;;;;;;4993421;28;20051;-86
2023/03/07 00:59:54;;;;;;;14.82;2.38;;;3.90;99.90;;;;;;4989427;28;20054;-86
2023/03/07 01:02:40;;;;;;;13.30;1.55;;;3.80;99.90;;;;;;4982157;28;20515;-87
2023/03/07 01:05:26;;;;;;;10.57;1.75;;;3.80;99.90;;;;;;4977668;28;20061;-87
2023/03/07 01:08:13;;;;;;;14.50;2.13;;;3.80;99.90;;;;;;4993839;28;20050;-87
2023/03/07 01:11:00;;;;;;;16.33;2.67;;;3.80;99.90;;;;;;4994909;28;20046;-87
2023/03/07 01:13:47;;;;;;;22.75;3.80;;;3.70;99.90;;;;;;4995134;28;20058;-87
2023/03/07 01:16:35;;;;;;;9.23;1.95;;;3.70;99.90;;;;;;4977144;28;20100;-87
2023/03/07 01:19:23;;;;;;;9.93;2.67;;;3.60;99.90;;;;;;4984355;28;20137;-88
2023/03/07 01:22:09;;;;;;;13.50;1.95;;;3.70;99.90;;;;;;4993402;28;20058;-86
2023/03/07 01:24:55;;;;;;;17.40;3.30;;;3.80;99.90;;;;;;4992678;28;20137;-87
2023/03/07 01:27:41;;;;;;;4.82;1.50;;;3.80;99.90;;;;;;4994512;28;20050;-86
2023/03/07 01:30:27;;;;;;;9.55;1.75;;;3.70;99.90;;;;;;4993982;28;20533;-87
2023/03/07 01:33:13;;;;;;;14.88;2.03;;;3.70;99.90;;;;;;4977158;28;20846;-87
2023/03/07 01:35:59;;;;;;;22.20;3.70;;;3.60;99.90;;;;;;4994780;28;20060;-87
2023/03/07 01:38:47;;;;;;;17.02;2.00;;;3.60;99.90;;;;;;4998941;28;20050;-87
2023/03/07 01:41:35;;;;;;;20.17;2.58;;;3.60;99.90;;;;;;4993483;28;20141;-87
2023/03/07 01:44:26;;;;;;;15.88;2.35;;;3.60;99.90;;;;;;4993693;28;20513;-87
2023/03/07 01:47:12;;;;;;;9.88;2.50;;;3.60;99.90;;;;;;4992891;28;20046;-86
2023/03/07 01:50:01;;;;;;;16.08;1.65;;;3.60;99.90;;;;;;4993933;28;20049;-86
2023/03/07 01:52:58;;;;;;;11.50;2.67;;;3.50;99.90;;;;;;4983826;28;20057;-86
2023/03/07 01:55:45;;;;;;;20.27;1.92;;;3.50;99.90;;;;;;4982023;28;20050;-87
2023/03/07 01:58:33;;;;;;;20.98;2.78;;;3.60;99.90;;;;;;4993521;28;20054;-86
2023/03/07 02:01:21;;;;;;;14.75;3.35;;;3.60;99.90;;;;;;4994570;28;20106;-86
2023/03/07 02:04:20;;;;;;;10.23;1.60;;;3.60;99.90;;;;;;4994493;28;20462;-86
2023/03/07 02:07:09;;;;;;;5.38;1.05;;;3.60;99.90;;;;;;4994189;28;20078;-87
2023/03/07 02:09:56;;;;;;;5.38;1.00;;;3.60;99.90;;;;;;4989883;28;20053;-87
2023/03/07 02:12:43;;;;;;;9.50;1.17;;;3.50;99.90;;;;;;4996132;28;20057;-87
2023/03/07 02:15:29;;;;;;;5.03;1.10;;;3.50;99.90;;;;;;4976500;28;20406;-86
2023/03/07 02:18:20;;;;;;;7.45;2.80;;;3.40;99.90;;;;;;4992769;28;20151;-87
2023/03/07 02:21:49;;;;;;;8.68;1.88;;;3.40;99.90;;;;;;4991986;28;20061;-87
2023/03/07 02:24:57;;;;;;;9.30;1.38;;;3.30;99.90;;;;;;4994320;28;20050;-87
2023/03/07 02:27:45;;;;;;;8.98;1.70;;;3.30;99.90;;;;;;4986084;28;20074;-88
2023/03/07 02:30:31;;;;;;;11.75;1.63;;;3.30;99.90;;;;;;4994434;28;20054;-88
2023/03/07 02:33:17;;;;;;;7.28;2.03;;;3.30;99.90;;;;;;4993658;28;20054;-86
2023/03/07 02:36:08;;;;;;;13.75;1.40;;;3.30;99.90;;;;;;4988927;28;20498;-88
2023/03/07 02:38:55;;;;;;;10.00;1.67;;;3.40;99.90;;;;;;4975962;28;20061;-87
2023/03/07 02:41:42;;;;;;;7.50;1.70;;;3.30;99.90;;;;;;4993090;28;20065;-86
2023/03/07 02:44:28;;;;;;;11.20;2.13;;;3.40;99.90;;;;;;4981006;28;20050;-87
2023/03/07 02:47:14;;;;;;;13.60;1.80;;;3.30;99.90;;;;;;4994684;28;20053;-86
2023/03/07 02:50:00;;;;;;;14.43;2.05;;;3.40;99.90;;;;;;4993416;28;20053;-88
2023/03/07 02:52:46;;;;;;;14.07;3.42;;;3.40;99.90;;;;;;4991565;28;20119;-87
2023/03/07 02:55:32;;;;;;;6.90;1.40;;;3.50;99.90;;;;;;4978569;28;20678;-86
2023/03/07 02:58:18;;;;;;;9.15;1.58;;;3.50;99.90;;;;;;4978877;28;20083;-87
2023/03/07 03:01:05;;;;;;;9.63;1.77;;;3.60;99.90;;;;;;4979063;28;20057;-86
2023/03/07 03:03:51;;;;;;;10.40;1.67;;;3.60;99.90;;;;;;4974509;28;20136;-86
2023/03/07 03:06:37;;;;;;;8.07;1.85;;;3.60;99.90;;;;;;4962447;28;20061;-87
2023/03/07 03:09:23;;;;;;;9.45;1.80;;;3.60;99.90;;;;;;4992999;28;20054;-87
2023/03/07 03:12:09;;;;;;;10.90;1.45;;;3.60;99.90;;;;;;4975671;28;20582;-86
2023/03/07 03:14:55;;;;;;;15.70;3.15;;;3.60;99.90;;;;;;4991657;28;20518;-88
2023/03/07 03:17:41;;;;;;;13.98;3.22;;;3.50;99.90;;;;;;4979180;28;20058;-87
2023/03/07 03:20:27;;;;;;;16.80;2.05;;;3.50;99.90;;;;;;4992559;28;20058;-86
2023/03/07 03:23:13;;;;;;;7.85;1.77;;;3.50;99.90;;;;;;4992798;28;20078;-86
2023/03/07 03:26:03;;;;;;;11.18;1.65;;;3.50;99.90;;;;;;4978045;28;20486;-87
2023/03/07 03:28:53;;;;;;;12.50;2.25;;;3.50;99.90;;;;;;4990468;28;20101;-85
2023/03/07 03:31:39;;;;;;;9.93;2.35;;;3.40;99.90;;;;;;4975102;28;20089;-87
2023/03/07 03:34:25;;;;;;;8.82;1.67;;;3.40;99.90;;;;;;4985850;28;20058;-87
2023/03/07 03:37:11;;;;;;;13.65;3.22;;;3.40;99.90;;;;;;4978847;28;20067;-87
2023/03/07 03:39:57;;;;;;;8.43;1.15;;;3.30;99.90;;;;;;4977933;28;20042;-88
2023/03/07 03:42:44;;;;;;;11.48;2.53;;;3.30;99.90;;;;;;4974862;28;20554;-87
2023/03/07 03:45:30;;;;;;;10.57;1.92;;;3.30;99.90;;;;;;4991874;28;20387;-86
2023/03/07 03:48:16;;;;;;;15.80;2.58;;;3.30;99.90;;;;;;4974173;28;20694;-88
2023/03/07 03:51:03;;;;;;;12.82;1.85;;;3.50;99.90;;;;;;4962710;28;20138;-86
2023/03/07 03:53:50;;;;;;;19.42;2.97;;;3.50;99.90;;;;;;4992059;28;20058;-87
2023/03/07 03:56:36;;;;;;;9.32;1.77;;;3.60;99.90;;;;;;4991611;28;20370;-88
2023/03/07 03:59:22;;;;;;;18.33;2.17;;;3.50;99.90;;;;;;4991315;28;20042;-87
2023/03/07 04:02:08;;;;;;;16.15;2.50;;;3.60;99.90;;;;;;4991555;28;20054;-87
2023/03/07 04:04:54;;;;;;;13.27;2.97;;;3.60;99.90;;;;;;4974735;28;20526;-87
2023/03/07 04:07:40;;;;;;;14.38;2.05;;;3.60;99.90;;;;;;4998343;28;20085;-89
2023/03/07 04:10:26;;;;;;;7.00;1.83;;;3.70;99.90;;;;;;4993786;28;20046;-87
2023/03/07 04:13:12;;;;;;;12.93;2.30;;;3.80;99.90;;;;;;4990532;28;20081;-88
2023/03/07 04:15:58;;;;;;;14.80;1.65;;;3.80;99.90;;;;;;4990958;28;20483;-88
2023/03/07 04:18:45;;;;;;;9.65;1.35;;;3.70;99.90;;;;;;4991703;28;20046;-88
2023/03/07 04:21:31;;;;;;;14.23;2.38;;;3.70;99.90;;;;;;4964343;28;20085;-87
2023/03/07 04:24:17;;;;;;;12.27;1.75;;;3.80;99.90;;;;;;4984042;28;20054;-87
2023/03/07 04:27:03;;;;;;;25.38;3.53;;;3.70;99.90;;;;;;4992384;28;20057;-87
2023/03/07 04:29:49;;;;;;;16.27;3.28;;;3.50;99.90;;;;;;4991895;28;20491;-88
2023/03/07 04:32:35;;;;;;;7.25;1.35;;;3.50;99.90;;;;;;4975856;28;20145;-89
2023/03/07 04:35:21;;;;;;;5.70;1.55;;;3.50;99.90;;;;;;4991730;28;20061;-87
2023/03/07 04:38:08;;;;;;;9.82;1.23;;;3.40;99.90;;;;;;4995650;28;20070;-88
2023/03/07 04:40:54;;;;;;;7.65;0.98;;;3.50;99.90;;;;;;4991314;28;20081;-88
2023/03/07 04:43:40;;;;;;;5.05;1.38;;;3.40;99.90;;;;;;4991851;28;20100;-89
2023/03/07 04:46:27;;;;;;;8.93;0.98;;;3.50;99.90;;;;;;4992847;28;20058;-87
2023/03/07 04:49:13;;;;;;;9.55;1.20;;;3.50;99.90;;;;;;4991462;28;20404;-87
2023/03/07 04:51:59;;;;;;;4.97;1.02;;;3.50;99.90;;;;;;4977225;28;20057;-88
2023/03/07 04:54:46;;;;;;;8.38;1.00;;;3.50;99.90;;;;;;4999052;28;20046;-87
2023/03/07 04:57:32;;;;;;;12.50;2.22;;;3.40;99.90;;;;;;4974711;28;20050;-87
2023/03/07 05:00:18;;;;;;;11.55;1.60;;;3.40;99.90;;;;;;4992123;28;20051;-88
2023/03/07 05:03:06;;;;;;;15.32;2.42;;;3.50;99.90;;;;;;4963796;28;20057;-87
2023/03/07 05:05:53;;;;;;;12.63;1.70;;;3.30;99.90;;;;;;4974135;28;20112;-87
2023/03/07 05:08:39;;;;;;;12.18;1.40;;;3.20;99.90;;;;;;4991819;28;20051;-88
2023/03/07 05:11:25;;;;;;;7.80;1.00;;;3.10;99.90;;;;;;5000600;28;20050;-88
2023/03/07 05:14:11;;;;;;;6.20;0.82;;;3.00;99.90;;;;;;5002324;28;20092;-87
2023/03/07 05:16:57;;;;;;;8.23;1.20;;;3.00;99.90;;;;;;4973994;28;20104;-87
2023/03/07 05:19:43;;;;;;;9.32;1.05;;;2.90;99.90;;;;;;4973674;28;20062;-88
2023/03/07 05:22:29;;;;;;;5.53;0.47;;;3.00;99.90;;;;;;4973765;28;20050;-88
2023/03/07 05:25:15;;;;;;;3.83;1.00;;;2.90;99.90;;;;;;4964665;28;20046;-88
2023/03/07 05:28:02;;;;;;;7.85;1.67;;;2.90;99.90;;;;;;4968734;28;20050;-88
2023/03/07 05:30:48;;;;;;;20.13;1.55;;;2.90;99.90;;;;;;4991595;28;20061;-88
2023/03/07 05:33:34;;;;;;;8.52;1.27;;;2.90;99.90;;;;;;4974030;28;20140;-87
2023/03/07 05:36:20;;;;;;;7.63;1.73;;;2.90;99.90;;;;;;4990506;28;20050;-87
2023/03/07 05:39:06;;;;;;;5.43;1.00;;;2.80;99.90;;;;;;4973632;28;20062;-87
2023/03/07 05:41:52;;;;;;;10.90;1.42;;;2.60;99.90;;;;;;4976949;28;20090;-87
2023/03/07 05:44:38;;;;;;;10.30;2.75;;;2.50;99.90;;;;;;5002135;28;20767;-88
2023/03/07 05:47:24;;;;;;;10.18;2.05;;;2.50;99.90;;;;;;4995283;28;20053;-87
2023/03/07 05:50:11;;;;;;;21.63;2.40;;;2.50;99.90;;;;;;4974877;28;20054;-87
2023/03/07 05:52:57;;;;;;;18.42;2.67;;;2.60;99.90;;;;;;4964204;28;20141;-88
2023/03/07 05:55:43;;;;;;;15.93;3.00;;;2.60;99.90;;;;;;4996934;28;20046;-87
2023/03/07 05:58:31;;;;;;;22.02;3.85;;;2.80;99.90;;;;;;4994921;28;20124;-87
2023/03/07 06:01:17;;;;;;;14.25;2.65;;;2.90;99.90;;;;;;4980908;28;20387;-87
2023/03/07 06:04:03;;;;;;;26.75;2.80;;;3.00;99.90;;;;;;4996343;28;20046;-86
2023/03/07 06:06:49;;;;;;;9.27;2.15;;;3.10;99.90;;;;;;4978622;28;20054;-87
2023/03/07 06:09:35;;;;;;;22.30;2.97;;;3.10;99.90;;;;;;4977003;28;20636;-87
2023/03/07 06:12:21;;;;;;;8.55;2.85;;;3.20;99.90;;;;;;4994552;28;20054;-86
2023/03/07 06:15:07;;;;;;;10.93;2.35;;;3.30;99.90;;;;;;4977982;28;20050;-86
2023/03/07 06:17:54;;;;;;;9.77;1.77;;;3.30;99.90;;;;;;4978361;28;20054;-87
2023/03/07 06:20:40;;;;;;;9.75;1.70;;;3.30;99.90;;;;;;4976816;28;20102;-88
2023/03/07 06:23:28;;;;;;;11.48;2.10;;;3.40;99.90;;;;;;4993692;28;20141;-86
2023/03/07 06:26:14;;;;;;;13.23;2.25;;;3.40;99.90;;;;;;4976159;28;20050;-88
2023/03/07 06:29:00;;;;;;;8.63;1.77;;;3.40;99.90;;;;;;4993128;28;20740;-87
2023/03/07 06:31:46;;;;;;;15.00;2.17;;;3.40;99.90;;;;;;4980081;28;20418;-86
2023/03/07 06:34:33;;;;;;;10.43;1.25;;;3.50;99.90;;;;;;4998718;28;20093;-86
2023/03/07 06:37:19;;;;;;;11.13;1.20;;;3.50;99.90;;;;;;4976814;28;20050;-86
2023/03/07 06:40:08;;;;;;;8.88;1.35;;;3.60;99.90;;;;;;4993358;28;20050;-87
2023/03/07 06:42:54;;;;;;;20.98;2.63;;;3.60;99.90;;;;;;4976157;28;20057;-88
2023/03/07 06:45:40;;;;;;;15.50;2.05;;;3.60;99.90;;;;;;4993635;28;20179;-89
2023/03/07 06:48:26;;;;;;;10.82;2.22;;;3.60;99.90;;;;;;4993453;28;20186;-88
2023/03/07 06:51:12;;;;;;;8.02;1.30;;;3.70;99.90;;;;;;4992098;28;20055;-87
2023/03/07 06:53:58;;;;;;;12.10;1.95;;;3.70;99.90;;;;;;4975853;28;20047;-89
2023/03/07 06:56:44;;;;;;;8.73;1.52;;;3.80;99.90;;;;;;4993323;28;20129;-87
2023/03/07 06:59:30;;;;;;;7.65;1.23;;;3.80;99.90;;;;;;4964636;28;20046;-88
2023/03/07 07:02:16;;;;;;;8.07;1.52;;;3.80;99.90;;;;;;4970110;28;20169;-88
2023/03/07 07:05:02;;;;;;;10.23;1.63;;;3.80;99.90;;;;;;4962509;28;20058;-87
2023/03/07 07:07:48;;;;;;;7.10;1.20;;;3.80;99.90;;;;;;4981234;28;20125;-88
2023/03/07 07:10:35;;;;;;;9.82;1.38;;;3.80;99.90;;;;;;4993427;28;20096;-87
2023/03/07 07:13:21;;;;;;;7.22;1.42;;;3.80;99.90;;;;;;4963240;28;20054;-87
2023/03/07 07:16:08;;;;;;;12.45;1.98;;;3.80;99.90;;;;;;4979144;28;20046;-87
2023/03/07 07:18:54;;;;;;;10.80;1.33;;;3.80;99.90;;;;;;4979340;28;20050;-87
2023/03/07 07:21:40;;;;;;;11.25;1.20;;;3.90;99.90;;;;;;4977089;28;20054;-87
2023/03/07 07:24:26;;;;;;;8.20;1.75;;;3.90;99.90;;;;;;4976049;28;20058;-88
2023/03/07 07:27:12;;;;;;;10.90;1.58;;;3.90;99.90;;;;;;4994478;28;20108;-89
2023/03/07 07:29:58;;;;;;;6.32;1.77;;;3.90;99.90;;;;;;4978883;28;20058;-89
2023/03/07 07:32:44;;;;;;;14.07;2.28;;;3.90;99.90;;;;;;4981497;28;20050;-89
2023/03/07 07:35:30;;;;;;;12.35;1.85;;;3.90;99.90;;;;;;4965295;28;20042;-88
2023/03/07 07:38:16;;;;;;;9.88;1.38;;;3.80;99.90;;;;;;4965845;28;20066;-88
2023/03/07 07:41:03;;;;;;;9.77;1.40;;;3.80;99.90;;;;;;4996134;28;20141;-88
2023/03/07 07:43:52;;;;;;;10.15;1.80;;;3.70;99.90;;;;;;4976247;28;20540;-88
2023/03/07 07:46:38;;;;;;;12.32;2.20;;;3.70;99.90;;;;;;4962904;28;20407;-87
2023/03/07 07:49:24;;;;;;;13.15;2.10;;;3.70;99.90;;;;;;5001664;28;20053;-88
2023/03/07 07:52:13;;;;;;;9.30;1.77;;;3.60;99.90;;;;;;4993191;28;20065;-86
2023/03/07 07:55:16;;;;;;;28.42;3.10;;;3.50;99.90;;;;;;4972370;28;20042;-85
2023/03/07 07:58:12;;;;;;;12.85;1.48;;;3.40;99.90;;;;;;5001735;28;20078;-87
2023/03/07 08:01:28;;;;;;;8.60;1.70;;;3.40;99.90;;;;;;4976899;28;20138;-87
2023/03/07 08:04:30;;;;;;;13.18;1.42;;;3.40;99.90;;;;;;4989280;28;20058;-87
2023/03/07 08:07:22;;;;;;;10.75;2.10;;;3.50;99.90;;;;;;4992171;28;20252;-87
2023/03/07 08:10:18;;;;;;;11.48;1.55;;;3.70;99.90;;;;;;4973636;28;20057;-87
2023/03/07 08:13:04;;;;;;;11.02;1.45;;;3.70;99.90;;;;;;4992556;28;20043;-87
2023/03/07 08:15:50;;;;;;;13.73;2.33;;;3.80;99.90;;;;;;4975189;28;20058;-87
2023/03/07 08:18:36;;;;;;;10.05;2.20;;;3.80;99.90;;;;;;4974896;28;20164;-87
2023/03/07 08:21:24;;;;;;;11.43;1.63;;;3.90;99.90;;;;;;4992547;28;20054;-88
2023/03/07 08:24:10;;;;;;;10.02;1.45;;;3.90;99.90;;;;;;4981508;28;20057;-87
2023/03/07 08:26:56;;;;;;;8.55;1.60;;;3.90;99.90;;;;;;5002423;28;20050;-87
2023/03/07 08:29:42;;;;;;;8.18;1.08;;;3.90;99.90;;;;;;4976529;28;20069;-86
2023/03/07 08:32:28;;;;;;;12.10;2.65;;;4.00;99.90;;;;;;4991981;28;20046;-87
2023/03/07 08:35:14;;;;;;;15.00;2.08;;;4.00;99.90;;;;;;4965245;28;20046;-87
2023/03/07 08:38:00;;;;;;;8.82;1.35;;;4.00;99.90;;;;;;4975740;28;20117;-88
2023/03/07 08:40:46;;;;;;;14.15;1.80;;;4.10;99.90;;;;;;4980024;28;20093;-88
2023/03/07 08:43:35;;;;;;;17.45;3.25;;;4.10;99.90;;;;;;5004409;28;20104;-87
2023/03/07 08:46:22;;;;;;;11.57;1.77;;;4.10;99.90;;;;;;4995266;28;20064;-88
2023/03/07 08:49:08;;;;;;;9.00;1.45;;;4.00;99.90;;;;;;4976588;28;20057;-87
2023/03/07 08:51:54;;;;;;;10.20;1.98;;;4.00;99.90;;;;;;4978405;28;20478;-90
2023/03/07 08:54:40;;;;;;;10.88;1.63;;;4.10;99.90;;;;;;4983567;28;20094;-87
2023/03/07 08:57:26;;;;;;;12.88;1.35;;;4.10;99.90;;;;;;4977873;28;20054;-87
2023/03/07 09:00:13;;;;;;;30.20;3.13;;;4.20;99.90;;;;;;4977214;28;20046;-87
2023/03/07 09:03:00;;;;;;;9.75;1.40;;;4.30;99.90;;;;;;4984961;28;20047;-87
2023/03/07 09:05:46;;;;;;;11.23;1.17;;;4.50;99.90;;;;;;4987981;28;20128;-88
2023/03/07 09:08:32;;;;;;;9.25;1.90;;;4.70;99.90;;;;;;4998406;28;20060;-88
2023/03/07 09:11:20;;;;;;;4.63;1.00;;;5.00;99.90;;;;;;4975413;28;20434;-85
2023/03/07 09:14:06;;;;;;;7.40;1.25;;;5.10;99.90;;;;;;4991758;28;20081;-87
2023/03/07 09:16:52;;;;;;;6.03;1.13;;;5.10;99.90;;;;;;5001106;28;20061;-88
2023/03/07 09:19:42;;;;;;;15.48;1.17;;;5.10;99.90;;;;;;4999831;28;20136;-87
2023/03/07 09:22:28;;;;;;;11.63;1.50;;;5.40;99.90;;;;;;4991772;28;20454;-87
2023/03/07 09:25:14;;;;;;;6.28;0.90;;;5.50;99.90;;;;;;4980785;28;20050;-88
2023/03/07 09:28:00;;;;;;;9.85;1.98;;;5.50;99.90;;;;;;4992570;28;20058;-87
2023/03/07 09:30:46;;;;;;;8.75;1.02;;;5.40;99.90;;;;;;4996494;28;20051;-87
2023/03/07 09:33:32;;;;;;;7.50;1.52;;;5.40;99.90;;;;;;5001186;28;20058;-87
2023/03/07 09:36:19;;;;;;;5.50;1.58;;;5.50;99.90;;;;;;4998139;28;20054;-86
2023/03/07 09:39:05;;;;;;;5.68;1.23;;;5.40;99.90;;;;;;5012646;28;20054;-87
2023/03/07 09:41:55;;;;;;;7.78;1.10;;;5.40;99.60;;;;;;5012280;28;20061;-88
2023/03/07 09:44:59;;;;;;;12.15;1.27;;;5.60;99.90;;;;;;4998863;28;20038;-87
2023/03/07 09:48:08;;;;;;;4.90;1.13;;;5.80;99.90;;;;;;4990524;28;20054;-87
2023/03/07 09:51:07;;;;;;;11.18;3.40;;;6.00;99.40;;;;;;4998515;28;20054;-88
2023/03/07 09:53:59;;;;;;;6.65;0.98;;;6.30;99.80;;;;;;5002996;28;20422;-88
2023/03/07 09:56:57;;;;;;;16.75;2.10;;;6.30;98.60;;;;;;4989215;28;20058;-87
2023/03/07 09:59:46;;;;;;;5.82;0.98;;;6.60;99.10;;;;;;5011508;28;20046;-87
2023/03/07 10:02:38;;;;;;;6.40;1.15;;;6.70;98.20;;;;;;4995771;28;20062;-87
2023/03/07 10:05:39;;;;;;;7.25;1.55;;;7.00;98.40;;;;;;4966487;28;20043;-88
2023/03/07 10:08:32;;;;;;;12.02;1.73;;;7.20;98.20;;;;;;4981830;28;20128;-89
2023/03/07 10:11:53;;;;;;;10.35;1.50;;;7.40;98.60;;;;;;4999909;28;20057;-87
2023/03/07 10:14:58;;;;;;;7.75;1.48;;;7.70;98.50;;;;;;5008695;28;20050;-88
2023/03/07 10:18:09;;;;;;;6.82;0.90;;;7.60;97.20;;;;;;4978200;28;20050;-87
2023/03/07 10:21:04;;;;;;;11.27;1.58;;;7.30;97.50;;;;;;4976404;28;20621;-87
2023/03/07 10:24:19;;;;;;;18.65;1.92;;;7.10;98.30;;;;;;4977814;28;20512;-89
2023/03/07 10:27:13;;;;;;;7.68;1.10;;;7.20;97.80;;;;;;4991261;28;20565;-89
2023/03/07 10:30:05;;;;;;;10.32;1.77;;;7.60;98.40;;;;;;4997169;28;20054;-88
2023/03/07 10:32:58;;;;;;;9.93;1.77;;;8.10;98.60;;;;;;4981872;28;20116;-88
2023/03/07 10:35:58;;;;;;;5.40;1.25;;;8.50;97.70;;;;;;4996695;28;20054;-88
2023/03/07 10:38:46;;;;;;;29.52;2.92;;;8.30;95.60;;;;;;4993882;28;20046;-89
2023/03/07 10:41:33;;;;;;;10.80;1.95;;;8.00;97.20;;;;;;4965296;28;20080;-87
2023/03/07 10:44:20;;;;;;;8.52;1.50;;;7.60;97.40;;;;;;4988037;28;20046;-86
2023/03/07 10:47:26;;;;;;;6.78;1.15;;;7.20;96.80;;;;;;4965014;28;20427;-88
2023/03/07 10:50:32;;;;;;;6.28;1.30;;;6.80;97.40;;;;;;4994021;28;20646;-87
2023/03/07 10:53:25;;;;;;;7.78;1.77;;;6.50;97.30;;;;;;4973036;28;20046;-87
2023/03/07 10:56:13;;;;;;;7.72;1.23;;;6.70;98.60;;;;;;4987045;28;20047;-88
2023/03/07 10:59:04;;;;;;;6.93;1.60;;;7.20;97.70;;;;;;4989819;28;20055;-88
2023/03/07 11:01:56;;;;;;;9.20;0.80;;;7.70;97.50;;;;;;4974837;28;20549;-88
2023/03/07 11:04:45;;;;;;;9.57;0.90;;;8.10;96.30;;;;;;4967845;28;20131;-88
2023/03/07 11:07:35;;;;;;;11.38;1.65;;;8.20;95.70;;;;;;4978829;28;20055;-89
2023/03/07 11:10:35;;;;;;;10.55;1.10;;;8.70;95.00;;;;;;4974282;28;20057;-89
2023/03/07 11:13:22;;;;;;;6.07;0.98;;;8.90;93.00;;;;;;4972182;28;20193;-89
2023/03/07 11:16:22;;;;;;;5.65;0.85;;;9.00;93.70;;;;;;4974088;28;20129;-88
2023/03/07 11:19:31;;;;;;;8.55;0.95;;;9.10;92.50;;;;;;4958237;28;20086;-88
2023/03/07 11:22:27;;;;;;;5.75;0.85;;;9.40;90.70;;;;;;4973700;28;20051;-88
2023/03/07 11:25:17;;;;;;;7.40;1.20;;;9.50;91.30;;;;;;4991467;28;20137;-88
2023/03/07 11:28:28;;;;;;;5.00;0.73;;;9.70;91.10;;;;;;4965270;28;20051;-89
2023/03/07 11:31:24;;;;;;;8.57;1.13;;;10.00;87.80;;;;;;4972815;28;20476;-90
2023/03/07 11:34:42;;;;;;;5.70;1.00;;;10.40;86.10;;;;;;4971407;28;20099;-88
2023/03/07 11:37:42;;;;;;;6.97;1.17;;;10.30;86.70;;;;;;4972430;28;20474;-89
2023/03/07 11:40:36;;;;;;;9.23;1.30;;;10.40;85.30;;;;;;4972393;28;20055;-89
2023/03/07 11:43:37;;;;;;;5.82;1.00;;;11.00;85.50;;;;;;4971745;28;20054;-89
2023/03/07 11:47:14;;;;;;;6.30;1.35;;;11.30;84.10;;;;;;4977383;28;20050;-88
2023/03/07 11:50:28;;;;;;;7.10;0.80;;;11.70;82.90;;;;;;4954747;28;20179;-90
2023/03/07 11:53:23;;;;;;;4.88;0.77;;;12.20;79.30;;;;;;4957448;28;20570;-89
2023/03/07 11:56:39;;;;;;;6.47;0.70;;;12.80;81.20;;;;;;4974482;28;20134;-90
2023/03/07 11:59:34;;;;;;;3.38;0.82;;;12.80;81.40;;;;;;4971094;28;20569;-90
2023/03/07 12:02:37;;;;;;;6.43;0.68;;;13.00;76.90;;;;;;4972552;28;20050;-90
2023/03/07 12:05:36;;;;;;;6.50;1.13;;;13.60;69.80;;;;;;4976751;28;20102;-88
2023/03/07 12:09:00;;;;;;;5.25;0.80;;;14.20;71.20;;;;;;4972383;28;20145;-90
2023/03/07 12:11:59;;;;;;;5.68;0.90;;;14.40;68.50;;;;;;4984812;28;20046;-87
2023/03/07 12:14:58;;;;;;;4.97;1.05;;;14.60;63.10;;;;;;4971883;28;20117;-88
2023/03/07 12:18:09;;;;;;;7.13;1.00;;;14.30;60.80;;;;;;4957812;28;20142;-89
2023/03/07 12:21:22;;;;;;;5.80;1.00;;;14.50;63.60;;;;;;4984560;28;20050;-88
2023/03/07 12:24:22;;;;;;;6.13;1.30;;;14.40;64.20;;;;;;4973799;28;20415;-89
2023/03/07 12:27:18;;;;;;;7.85;1.60;;;13.70;66.60;;;;;;4972150;28;20110;-88
2023/03/07 12:30:29;;;;;;;6.93;2.00;;;13.00;70.20;;;;;;4970854;28;20550;-89
2023/03/07 12:33:41;;;;;;;7.20;1.60;;;13.70;67.10;;;;;;4977445;28;20049;-88
2023/03/07 12:36:37;;;;;;;5.80;1.00;;;14.30;64.90;;;;;;4972245;28;20061;-88
2023/03/07 12:39:45;;;;;;;7.28;1.25;;;14.80;63.80;;;;;;4970764;28;20051;-88
2023/03/07 12:42:47;;;;;;;9.75;1.13;;;14.10;61.20;;;;;;4971183;28;20046;-88
2023/03/07 12:46:04;;;;;;;8.93;1.20;;;15.50;68.40;;;;;;4971534;28;20163;-87
2023/03/07 12:49:01;;;;;;;7.75;1.15;;;14.30;69.20;;;;;;4950213;28;20066;-88
2023/03/07 12:51:53;;;;;;;5.43;0.90;;;14.20;73.10;;;;;;4981025;28;20415;-89
2023/03/07 12:54:49;;;;;;;10.45;1.10;;;15.00;73.70;;;;;;4977864;28;20057;-88
2023/03/07 12:57:40;;;;;;;7.70;1.60;;;16.00;71.20;;;;;;4990866;28;20043;-89
2023/03/07 13:00:26;;;;;;;9.50;1.42;;;17.20;70.20;;;;;;4973877;28;20056;-89
2023/03/07 13:03:36;;;;;;;6.10;0.85;;;17.70;67.10;;;;;;4972463;28;20046;-89
2023/03/07 13:06:24;;;;;;;8.52;0.80;;;18.00;64.80;;;;;;4978486;28;20089;-89
2023/03/07 13:09:24;;;;;;;10.38;1.10;;;18.50;64.20;;;;;;4978508;28;20058;-88
2023/03/07 13:12:22;;;;;;;5.38;0.90;;;19.10;66.20;;;;;;4983325;28;20050;-89
2023/03/07 13:15:17;;;;;;;7.03;0.77;;;18.90;59.10;;;;;;4991344;28;20441;-92
2023/03/07 13:18:03;;;;;;;4.75;0.80;;;18.90;55.00;;;;;;4973910;28;20406;-90
2023/03/07 13:21:06;;;;;;;5.47;0.63;;;19.30;57.30;;;;;;4960279;28;20557;-90
2023/03/07 13:24:33;;;;;;;8.25;1.05;;;19.30;55.60;;;;;;4961742;28;20113;-90
2023/03/07 13:27:44;;;;;;;3.10;0.73;;;18.60;52.90;;;;;;4991305;28;20051;-89
2023/03/07 13:30:34;;;;;;;5.50;1.00;;;18.60;55.60;;;;;;4973438;28;20437;-88
2023/03/07 13:33:27;;;;;;;4.90;0.95;;;19.30;54.60;;;;;;4995852;28;20541;-89
2023/03/07 13:36:36;;;;;;;10.00;1.42;;;20.00;55.50;;;;;;4990540;28;20380;-89
2023/03/07 13:39:37;;;;;;;7.60;0.77;;;19.90;54.10;;;;;;4992023;28;20076;-89
2023/03/07 13:42:46;;;;;;;5.03;0.90;;;19.50;54.50;;;;;;4990280;28;20050;-89
2023/03/07 13:45:38;;;;;;;5.32;1.05;;;17.40;55.80;;;;;;4972532;28;20061;-88
2023/03/07 13:48:27;;;;;;;5.90;0.82;;;15.30;60.40;;;;;;4976264;28;20574;-89
2023/03/07 13:51:13;;;;;;;2.67;0.50;;;13.40;67.00;;;;;;4964786;28;20058;-88
2023/03/07 13:54:03;;;;;;;4.78;0.88;;;11.30;77.70;;;;;;4973348;28;20060;-89
2023/03/07 13:56:50;;;;;;;6.63;1.55;;;10.30;90.20;;;;;;4994585;28;20142;-86
2023/03/07 13:59:36;;;;;;;2.83;0.50;;;9.70;94.10;;;;;;4973239;28;20062;-88
2023/03/07 14:02:23;;;;;;;5.10;0.50;;;10.40;96.80;;;;;;4990204;28;20052;-88
2023/03/07 14:05:09;;;;;;;2.72;0.55;;;12.80;95.10;;;;;;4974563;28;20058;-88
2023/03/07 14:07:57;;;;;;;6.80;1.30;;;14.10;90.20;;;;;;4994696;28;20106;-88
2023/03/07 14:10:45;;;;;;;6.53;0.90;;;13.70;86.70;;;;;;5003675;28;20050;-89
2023/03/07 14:13:44;;;;;;;5.05;1.10;;;14.00;87.30;;;;;;4976307;28;20083;-90
2023/03/07 14:16:50;;;;;;;3.20;0.60;;;13.60;86.00;;;;;;5001161;28;20149;-89
2023/03/07 14:19:51;;;;;;;5.63;0.65;;;12.10;85.70;;;;;;4992689;28;20065;-88
2023/03/07 14:23:15;;;;;;;4.78;0.77;;;11.10;89.80;;;;;;4977766;28;20051;-89
2023/03/07 14:26:32;;;;;;;5.93;0.80;;;10.30;92.10;;;;;;4977400;28;20057;-87
2023/03/07 14:29:23;;;;;;;6.75;0.73;;;9.20;94.70;;;;;;4983737;28;20138;-87
2023/03/07 14:32:21;;;;;;;5.43;0.82;;;8.40;96.40;;;;;;4980038;28;20042;-88
2023/03/07 14:35:14;;;;;;;3.55;0.30;;;7.40;97.50;;;;;;4998586;28;20062;-87
2023/03/07 14:38:00;;;;;;;2.00;0.50;;;6.60;99.70;;;;;;4996038;28;20061;-87
2023/03/07 14:40:58;;;;;;;2.38;0.30;;;6.20;99.90;;;;;;4994200;28;20964;-88
2023/03/07 14:44:10;;;;;;;3.10;0.60;;;5.90;99.90;;;;;;4977655;28;20054;-87
2023/03/07 14:47:11;;;;;;;4.95;0.68;;;5.60;99.90;;;;;;4994891;28;20476;-87
2023/03/07 14:50:22;;;;;;;4.35;0.63;;;5.50;99.90;;;;;;4998302;28;20050;-88
2023/03/07 14:53:22;;;;;;;3.13;0.30;;;5.70;99.90;;;;;;4979021;28;20126;-89
2023/03/07 14:56:09;;;;;;;3.20;0.15;;;7.40;99.90;;;;;;4992759;28;20046;-90